Time;durP1;ratioP1;P1;durP2;ratioP2;P2;SDS_P1;SDS_P2;PMS_P1;PMS_P2;Temp;Humidity;BMP_temperature;BMP_pressure;BME280_temperature;BME280_humidity;BME280_pressure;Samples;Min_cycle;Max_cycle;Signal;HPM_P1;HPM_P2
2022/11/21 00:01:39;;;;;;;25.65;3.53;;;11.20;79.40;;;;;;7371008;19;20039;-80
2022/11/21 00:04:08;;;;;;;22.35;3.67;;;11.10;79.20;;;;;;7368067;19;20026;-79
2022/11/21 00:06:38;;;;;;;28.85;4.03;;;11.10;79.40;;;;;;7367020;19;20168;-79
2022/11/21 00:09:09;;;;;;;25.38;3.45;;;11.10;79.40;;;;;;7390252;19;20450;-79
2022/11/21 00:11:38;;;;;;;27.73;4.32;;;11.10;79.60;;;;;;7369388;19;20041;-80
2022/11/21 00:14:08;;;;;;;24.40;3.42;;;11.10;79.70;;;;;;7370596;19;20103;-80
2022/11/21 00:16:37;;;;;;;26.10;4.15;;;11.00;80.00;;;;;;7369117;19;20037;-80
2022/11/21 00:19:06;;;;;;;21.83;4.05;;;11.00;79.80;;;;;;7367506;19;20022;-79
2022/11/21 00:21:35;;;;;;;15.90;3.55;;;11.00;79.70;;;;;;7371818;19;20014;-80
2022/11/21 00:24:04;;;;;;;28.27;3.72;;;11.00;79.60;;;;;;7390941;19;20403;-79
2022/11/21 00:26:36;;;;;;;23.15;4.07;;;11.00;79.60;;;;;;7369671;19;20018;-79
2022/11/21 00:29:05;;;;;;;30.42;3.92;;;11.00;79.30;;;;;;7370231;19;20346;-80
2022/11/21 00:31:35;;;;;;;19.50;4.55;;;11.00;79.20;;;;;;7369365;19;20014;-79
2022/11/21 00:34:04;;;;;;;23.80;3.58;;;11.00;79.20;;;;;;7370594;19;20026;-80
2022/11/21 00:36:33;;;;;;;24.42;3.95;;;11.00;79.20;;;;;;7368083;19;20055;-79
2022/11/21 00:39:02;;;;;;;23.55;3.50;;;11.00;79.20;;;;;;7393627;19;20038;-79
2022/11/21 00:41:32;;;;;;;17.38;3.88;;;11.00;79.10;;;;;;7369280;19;20026;-79
2022/11/21 00:44:04;;;;;;;18.67;3.53;;;11.00;78.80;;;;;;7371588;19;20464;-80
2022/11/21 00:46:33;;;;;;;28.95;4.30;;;11.00;78.60;;;;;;7371057;19;20457;-79
2022/11/21 00:49:03;;;;;;;26.80;3.47;;;11.00;78.60;;;;;;7367361;19;20627;-79
2022/11/21 00:51:32;;;;;;;23.70;3.90;;;10.90;78.30;;;;;;7367786;19;20030;-79
2022/11/21 00:54:01;;;;;;;26.08;4.07;;;11.00;78.60;;;;;;7391906;19;20018;-79
2022/11/21 00:56:30;;;;;;;24.45;4.30;;;11.00;78.60;;;;;;7368873;19;20014;-80
2022/11/21 00:59:00;;;;;;;17.48;4.38;;;10.90;78.30;;;;;;7368377;19;20014;-79
2022/11/21 01:01:32;;;;;;;19.67;4.28;;;10.90;78.20;;;;;;7368406;19;20513;-78
2022/11/21 01:04:01;;;;;;;20.15;3.65;;;11.00;78.00;;;;;;7369563;19;20015;-78
2022/11/21 01:06:30;;;;;;;22.98;3.80;;;10.90;77.90;;;;;;7369771;19;20026;-78
2022/11/21 01:08:59;;;;;;;20.25;3.92;;;10.90;77.70;;;;;;7389417;19;20014;-79
2022/11/21 01:11:28;;;;;;;22.35;3.83;;;10.90;77.70;;;;;;7367882;19;20427;-78
2022/11/21 01:13:58;;;;;;;26.30;4.50;;;10.80;77.60;;;;;;7368726;19;20025;-79
2022/11/21 01:16:31;;;;;;;19.75;4.57;;;10.80;77.70;;;;;;7380510;19;20018;-79
2022/11/21 01:19:01;;;;;;;19.05;3.95;;;10.80;77.70;;;;;;7383473;19;20021;-79
2022/11/21 01:21:32;;;;;;;22.42;4.15;;;10.70;77.60;;;;;;7384711;19;20446;-79
2022/11/21 01:24:03;;;;;;;25.92;3.88;;;10.70;77.60;;;;;;7406818;19;20042;-79
2022/11/21 01:26:36;;;;;;;26.02;4.20;;;10.70;77.50;;;;;;7384529;19;20568;-79
2022/11/21 01:29:07;;;;;;;14.88;4.20;;;10.70;77.30;;;;;;7386083;19;20450;-79
2022/11/21 01:31:39;;;;;;;17.60;4.10;;;10.70;77.30;;;;;;7388607;19;20028;-79
2022/11/21 01:34:08;;;;;;;16.05;3.90;;;10.70;77.30;;;;;;7389251;19;20017;-79
2022/11/21 01:36:38;;;;;;;22.33;4.03;;;10.60;77.10;;;;;;7386784;19;20461;-78
2022/11/21 01:39:08;;;;;;;20.88;4.00;;;10.60;77.50;;;;;;7408627;19;20991;-78
2022/11/21 01:41:40;;;;;;;25.55;3.97;;;10.70;77.60;;;;;;7387240;19;20018;-79
2022/11/21 01:44:15;;;;;;;;;;;10.60;77.30;;;;;;7386937;19;20011;-78
2022/11/21 01:46:47;;;;;;;28.20;3.67;;;10.70;77.70;;;;;;7385856;19;19966;-78
2022/11/21 01:49:20;;;;;;;22.35;3.60;;;10.60;77.80;;;;;;7391079;19;20006;-78
2022/11/21 01:51:56;;;;;;;17.38;3.00;;;10.60;77.80;;;;;;7402978;19;20018;-79
2022/11/21 01:54:30;;;;;;;21.13;4.25;;;10.60;77.80;;;;;;7397597;19;20012;-78
2022/11/21 01:57:03;;;;;;;25.30;3.83;;;10.60;77.70;;;;;;7414527;19;20010;-79
2022/11/21 01:59:37;;;;;;;17.15;3.35;;;10.70;77.70;;;;;;7391915;19;20015;-78
2022/11/21 02:02:11;;;;;;;18.65;3.60;;;10.70;77.50;;;;;;7390131;19;20019;-79
2022/11/21 02:04:43;;;;;;;21.73;3.55;;;10.70;77.30;;;;;;7388320;19;20326;-78
2022/11/21 02:07:15;;;;;;;15.55;3.50;;;10.70;77.20;;;;;;7386444;19;20041;-78
2022/11/21 02:09:49;;;;;;;15.73;3.40;;;10.80;77.00;;;;;;7387821;19;20018;-78
2022/11/21 02:12:24;;;;;;;19.65;3.92;;;10.80;77.10;;;;;;7392340;19;20030;-78
2022/11/21 02:14:55;;;;;;;24.17;3.70;;;10.80;77.20;;;;;;7405167;19;20025;-79
2022/11/21 02:17:28;;;;;;;21.20;3.50;;;10.80;77.20;;;;;;7382193;19;20437;-78
2022/11/21 02:20:00;;;;;;;22.98;3.70;;;10.80;77.00;;;;;;7394412;19;20032;-77
2022/11/21 02:22:32;;;;;;;;;;;10.80;77.00;;;;;;7403842;19;20059;-78
2022/11/21 02:25:09;;;;;;;22.33;3.25;;;10.80;77.20;;;;;;7382683;19;19945;-78
2022/11/21 02:27:38;;;;;;;16.35;2.90;;;10.80;77.20;;;;;;7375352;19;20497;-78
2022/11/21 02:30:11;;;;;;;15.13;3.30;;;10.80;77.20;;;;;;7394559;19;20026;-78
2022/11/21 02:32:45;;;;;;;14.48;2.83;;;10.80;77.30;;;;;;7376346;19;20044;-78
2022/11/21 02:35:15;;;;;;;13.95;3.15;;;10.70;77.10;;;;;;7374125;19;20806;-78
2022/11/21 02:37:46;;;;;;;15.25;3.33;;;10.80;77.00;;;;;;7372026;19;20018;-79
2022/11/21 02:40:24;;;;;;;20.35;4.22;;;10.80;77.00;;;;;;7372708;19;20019;-79
2022/11/21 02:43:03;;;;;;;20.60;3.67;;;10.80;76.90;;;;;;7373122;19;20060;-78
2022/11/21 02:45:36;;;;;;;15.77;3.33;;;10.80;76.90;;;;;;7374315;19;20025;-78
2022/11/21 02:48:06;;;;;;;18.55;3.38;;;10.80;77.10;;;;;;7401613;19;20025;-78
2022/11/21 02:50:37;;;;;;;16.48;3.70;;;10.70;77.00;;;;;;7376410;19;20019;-78
2022/11/21 02:53:10;;;;;;;13.13;3.03;;;10.70;77.30;;;;;;7375465;19;20029;-78
2022/11/21 02:55:44;;;;;;;18.95;3.42;;;10.70;77.30;;;;;;7374788;19;20028;-78
2022/11/21 02:58:14;;;;;;;18.65;3.95;;;10.70;77.30;;;;;;7371314;19;20022;-79
2022/11/21 03:00:44;;;;;;;23.90;3.08;;;10.70;77.50;;;;;;7374301;19;20018;-79
2022/11/21 03:03:14;;;;;;;14.13;3.27;;;10.70;77.70;;;;;;7393490;19;20018;-79
2022/11/21 03:05:44;;;;;;;27.05;4.18;;;10.70;77.60;;;;;;7372294;19;20018;-78
2022/11/21 03:08:14;;;;;;;13.20;3.40;;;10.70;77.50;;;;;;7373859;19;20019;-78
2022/11/21 03:10:46;;;;;;;16.95;3.30;;;10.80;77.60;;;;;;7371650;19;20015;-79
2022/11/21 03:13:16;;;;;;;21.55;3.97;;;10.70;77.60;;;;;;7373463;19;20022;-79
2022/11/21 03:15:46;;;;;;;17.48;3.63;;;10.80;77.60;;;;;;7368398;19;20014;-79
2022/11/21 03:18:15;;;;;;;13.23;3.22;;;10.70;77.50;;;;;;7393018;19;20019;-78
2022/11/21 03:20:45;;;;;;;18.88;3.40;;;10.70;77.50;;;;;;7373828;19;20026;-78
2022/11/21 03:23:14;;;;;;;20.20;3.72;;;10.80;77.50;;;;;;7372515;19;20010;-78
2022/11/21 03:25:46;;;;;;;27.45;5.70;;;10.80;77.50;;;;;;7371539;19;20014;-78
2022/11/21 03:28:16;;;;;;;33.33;7.53;;;10.80;77.50;;;;;;7369784;19;20011;-78
2022/11/21 03:30:47;;;;;;;34.13;5.28;;;10.80;77.60;;;;;;7370853;19;20010;-78
2022/11/21 03:33:17;;;;;;;35.37;4.87;;;10.80;77.70;;;;;;7393942;19;20043;-79
2022/11/21 03:35:46;;;;;;;22.05;4.28;;;10.80;78.00;;;;;;7372331;19;20034;-79
2022/11/21 03:38:17;;;;;;;21.17;3.55;;;10.80;77.90;;;;;;7371435;19;20458;-79
2022/11/21 03:40:49;;;;;;;20.08;3.83;;;10.80;77.90;;;;;;7369570;19;20644;-78
2022/11/21 03:43:21;;;;;;;21.40;4.20;;;10.80;77.80;;;;;;7371496;19;20052;-79
2022/11/21 03:45:51;;;;;;;19.17;3.53;;;10.80;77.70;;;;;;7370015;19;20042;-78
2022/11/21 03:48:20;;;;;;;16.70;3.53;;;10.80;77.60;;;;;;7368452;19;20090;-79
2022/11/21 03:50:50;;;;;;;24.30;4.00;;;10.80;77.60;;;;;;7392322;19;20027;-78
2022/11/21 03:53:20;;;;;;;21.30;3.70;;;10.80;77.70;;;;;;7368387;19;20090;-80
2022/11/21 03:55:54;;;;;;;23.73;4.00;;;10.80;77.70;;;;;;7370088;19;20014;-80
2022/11/21 03:58:24;;;;;;;24.88;4.28;;;10.80;77.60;;;;;;7368883;19;20018;-80
2022/11/21 04:00:54;;;;;;;22.85;4.18;;;10.70;78.00;;;;;;7368445;19;20078;-80
2022/11/21 04:03:23;;;;;;;27.58;4.20;;;10.70;77.50;;;;;;7368137;19;20018;-79
2022/11/21 04:05:54;;;;;;;26.60;4.93;;;10.70;77.50;;;;;;7389964;19;20018;-80
2022/11/21 04:08:24;;;;;;;34.55;5.25;;;10.70;77.80;;;;;;7368858;19;20026;-80
2022/11/21 04:10:58;;;;;;;25.60;4.75;;;10.60;77.80;;;;;;7369220;19;20014;-80
2022/11/21 04:13:28;;;;;;;25.65;4.10;;;10.60;77.90;;;;;;7369885;19;20488;-80
2022/11/21 04:15:58;;;;;;;36.80;6.40;;;10.60;77.90;;;;;;7368650;19;20466;-80
2022/11/21 04:18:28;;;;;;;20.60;5.05;;;10.60;77.60;;;;;;7369778;19;20014;-80
2022/11/21 04:20:59;;;;;;;27.80;5.05;;;10.50;77.60;;;;;;7390287;19;20077;-79
2022/11/21 04:23:30;;;;;;;25.50;5.80;;;10.50;77.70;;;;;;7370438;19;20023;-80
2022/11/21 04:26:03;;;;;;;28.48;4.65;;;10.60;78.00;;;;;;7370714;19;20035;-79
2022/11/21 04:28:33;;;;;;;32.58;4.95;;;10.50;77.80;;;;;;7369524;19;20068;-80
2022/11/21 04:31:07;;;;;;;21.52;4.07;;;10.50;78.00;;;;;;7368664;19;20047;-80
2022/11/21 04:33:37;;;;;;;23.13;4.18;;;10.50;77.90;;;;;;7369770;19;20011;-79
2022/11/21 04:36:08;;;;;;;20.70;4.95;;;10.50;77.80;;;;;;7388834;19;20018;-79
2022/11/21 04:38:39;;;;;;;19.17;5.30;;;10.50;77.90;;;;;;7369760;19;20014;-79
2022/11/21 04:41:12;;;;;;;37.60;5.53;;;10.50;77.90;;;;;;7367083;19;20366;-79
2022/11/21 04:43:41;;;;;;;25.75;5.00;;;10.50;77.80;;;;;;7370298;19;20369;-79
2022/11/21 04:46:31;;;;;;;31.65;4.65;;;10.50;77.60;;;;;;7369874;19;20041;-79
2022/11/21 04:49:06;;;;;;;18.45;4.45;;;10.50;77.70;;;;;;7366715;19;20018;-80
2022/11/21 04:51:37;;;;;;;26.42;4.68;;;10.50;77.80;;;;;;7368815;19;20022;-79
2022/11/21 04:54:24;;;;;;;24.27;4.30;;;10.50;77.50;;;;;;7389611;19;20078;-80
2022/11/21 04:57:21;;;;;;;34.00;4.78;;;10.40;77.60;;;;;;7370436;19;20026;-79
2022/11/21 04:59:56;;;;;;;19.55;4.07;;;10.40;77.50;;;;;;7368388;19;20007;-80
2022/11/21 05:02:44;;;;;;;22.80;4.63;;;10.40;77.50;;;;;;7367718;19;20086;-80
2022/11/21 05:05:43;;;;;;;33.75;5.45;;;10.40;77.50;;;;;;7365125;19;20014;-79
2022/11/21 05:08:38;;;;;;;26.88;5.57;;;10.40;77.60;;;;;;7368384;19;20022;-79
2022/11/21 05:14:28;;;;;;;19.47;5.10;;;10.50;77.70;;;;;;7363803;19;20492;-79
2022/11/21 05:17:09;;;;;;;25.70;5.40;;;10.50;77.70;;;;;;7354885;19;20023;-79
2022/11/21 05:19:40;;;;;;;23.88;6.03;;;10.50;77.70;;;;;;7367438;19;20014;-77
2022/11/21 05:22:13;;;;;;;;;;;10.50;77.70;;;;;;7367755;19;20015;-78
2022/11/21 05:24:44;;;;;;;34.92;5.43;;;10.60;77.90;;;;;;7365934;19;19945;-79
2022/11/21 05:27:15;;;;;;;31.23;5.55;;;10.60;78.20;;;;;;7387174;19;20570;-79
2022/11/21 05:29:48;;;;;;;40.47;5.50;;;10.60;78.80;;;;;;7368905;19;20325;-79
2022/11/21 05:32:18;;;;;;;55.53;6.40;;;10.60;79.20;;;;;;7366992;19;20022;-78
2022/11/21 05:34:48;;;;;;;32.85;5.70;;;10.60;80.20;;;;;;7368495;19;20031;-78
2022/11/21 05:37:20;;;;;;;46.63;5.97;;;10.70;79.90;;;;;;7368126;19;20025;-78
2022/11/21 05:39:51;;;;;;;41.83;6.57;;;10.70;80.00;;;;;;7368441;19;20025;-78
2022/11/21 05:43:44;;;;;;;39.60;6.03;;;10.70;80.50;;;;;;7365564;19;20017;-79
2022/11/21 05:45:15;;;;;;;44.53;6.55;;;10.70;80.50;;;;;;7388731;19;20026;-79
2022/11/21 05:47:45;;;;;;;44.75;7.70;;;10.70;80.60;;;;;;7367455;19;20468;-79
2022/11/21 05:50:15;;;;;;;52.92;7.07;;;10.80;80.70;;;;;;7366804;19;20018;-79
2022/11/21 05:52:45;;;;;;;40.13;7.07;;;10.80;80.70;;;;;;7367217;19;20014;-78
2022/11/21 05:55:15;;;;;;;37.33;6.38;;;10.90;80.50;;;;;;7365253;19;20010;-79
2022/11/21 05:57:44;;;;;;;29.92;6.07;;;10.90;80.50;;;;;;7364711;19;20032;-79
2022/11/21 06:00:19;;;;;;;51.35;7.82;;;10.90;80.40;;;;;;7388101;19;20117;-79
2022/11/21 06:05:32;;;;;;;41.75;6.10;;;11.00;80.30;;;;;;7375431;19;20088;-79
2022/11/21 06:08:01;;;;;;;48.13;6.87;;;11.00;80.20;;;;;;7374373;19;20045;-79
2022/11/21 06:10:32;;;;;;;36.80;6.85;;;11.00;80.20;;;;;;7374179;19;20033;-79
2022/11/21 06:13:20;;;;;;;42.03;6.57;;;11.00;80.10;;;;;;7372223;19;20105;-79
2022/11/21 06:15:55;;;;;;;33.65;6.93;;;11.00;80.10;;;;;;7371940;19;20318;-79
2022/11/21 06:18:25;;;;;;;47.55;8.32;;;11.10;80.00;;;;;;7372584;19;20627;-79
2022/11/21 06:20:56;;;;;;;39.58;6.95;;;11.10;80.00;;;;;;7392278;19;20462;-79
2022/11/21 06:23:26;;;;;;;40.75;6.85;;;11.10;80.00;;;;;;7373942;19;20094;-79
2022/11/21 06:25:59;;;;;;;45.03;7.13;;;11.20;80.00;;;;;;7372928;19;20018;-79
2022/11/21 06:28:32;;;;;;;42.55;7.78;;;11.10;79.90;;;;;;7374633;19;20028;-79
2022/11/21 06:31:09;;;;;;;45.83;8.15;;;11.10;79.90;;;;;;7368689;19;20578;-80
2022/11/21 06:33:41;;;;;;;36.05;8.88;;;11.10;79.90;;;;;;7371790;19;20434;-79
2022/11/21 06:36:13;;;;;;;41.35;8.75;;;11.20;79.90;;;;;;7397271;19;20018;-79
2022/11/21 06:38:43;;;;;;;49.15;8.90;;;11.20;79.90;;;;;;7371446;19;20461;-79
2022/11/21 06:41:17;;;;;;;43.28;8.65;;;11.20;79.70;;;;;;7372786;19;20019;-79
2022/11/21 06:43:47;;;;;;;57.55;8.80;;;11.20;79.70;;;;;;7371323;19;20015;-79
2022/11/21 06:46:21;;;;;;;66.10;9.05;;;11.20;79.70;;;;;;7372071;19;20031;-79
2022/11/21 06:48:51;;;;;;;58.53;9.60;;;11.20;79.70;;;;;;7369495;19;20338;-79
2022/11/21 06:51:22;;;;;;;37.47;8.43;;;11.20;79.60;;;;;;7370251;19;20011;-78
2022/11/21 06:53:57;;;;;;;43.33;8.88;;;11.20;79.60;;;;;;7392490;19;20022;-79
2022/11/21 06:56:28;;;;;;;53.88;8.95;;;11.20;79.60;;;;;;7374103;19;20014;-79
2022/11/21 06:58:58;;;;;;;43.58;9.35;;;11.20;79.50;;;;;;7371551;19;20022;-79
2022/11/21 07:01:30;;;;;;;46.65;8.93;;;11.20;79.50;;;;;;7371236;19;20043;-79
2022/11/21 07:04:00;;;;;;;41.28;9.00;;;11.20;79.60;;;;;;7371506;19;20007;-79
2022/11/21 07:06:30;;;;;;;30.92;7.65;;;11.20;79.70;;;;;;7371169;19;20025;-79
2022/11/21 07:09:01;;;;;;;59.20;9.03;;;11.20;79.70;;;;;;7398556;19;20026;-79
2022/11/21 07:11:31;;;;;;;53.37;8.57;;;11.20;79.60;;;;;;7376606;19;20298;-79
2022/11/21 07:13:59;;;;;;;43.10;7.75;;;11.20;79.50;;;;;;7369774;19;20590;-79
2022/11/21 07:16:32;;;;;;;35.92;7.80;;;11.20;79.40;;;;;;7371775;19;20019;-79
2022/11/21 07:19:02;;;;;;;39.53;8.15;;;11.10;79.50;;;;;;7368602;19;20315;-79
2022/11/21 07:21:32;;;;;;;31.25;7.10;;;11.10;79.40;;;;;;7369434;19;20433;-79
2022/11/21 07:24:02;;;;;;;46.83;7.38;;;11.10;79.40;;;;;;7392300;19;20042;-79
2022/11/21 07:26:32;;;;;;;29.70;7.15;;;11.10;79.50;;;;;;7371684;19;20014;-79
2022/11/21 07:29:02;;;;;;;33.05;8.25;;;11.10;79.50;;;;;;7371584;19;20026;-79
2022/11/21 07:31:34;;;;;;;46.75;9.40;;;11.10;79.40;;;;;;7369495;19;20122;-79
2022/11/21 07:34:05;;;;;;;35.88;9.10;;;11.10;79.40;;;;;;7370331;19;20038;-80
2022/11/21 07:36:35;;;;;;;43.60;8.88;;;11.20;79.60;;;;;;7370456;19;20453;-80
2022/11/21 07:39:05;;;;;;;37.95;8.07;;;11.20;79.40;;;;;;7390157;19;20025;-79
2022/11/21 07:41:35;;;;;;;29.63;8.27;;;11.10;79.30;;;;;;7369170;19;20468;-80
2022/11/21 07:44:05;;;;;;;44.85;8.95;;;11.10;79.10;;;;;;7370376;19;20019;-79
2022/11/21 07:46:38;;;;;;;48.72;10.10;;;11.10;79.30;;;;;;7370830;19;20046;-79
2022/11/21 07:49:08;;;;;;;38.58;8.60;;;11.10;79.30;;;;;;7367509;19;20026;-79
2022/11/21 07:51:38;;;;;;;38.65;8.82;;;11.10;79.30;;;;;;7371322;19;20023;-79
2022/11/21 07:54:09;;;;;;;37.13;8.55;;;11.10;79.30;;;;;;7392233;19;20519;-79
2022/11/21 07:56:39;;;;;;;42.05;9.48;;;11.20;79.30;;;;;;7370251;19;20134;-79
2022/11/21 07:59:09;;;;;;;38.85;9.45;;;11.20;79.20;;;;;;7370644;19;20591;-79
2022/11/21 08:01:41;;;;;;;46.53;10.18;;;11.20;79.20;;;;;;7369856;19;20550;-79
2022/11/21 08:04:11;;;;;;;52.13;11.70;;;11.20;79.20;;;;;;7370175;19;20015;-79
2022/11/21 08:06:40;;;;;;;51.67;12.07;;;11.20;79.10;;;;;;7368395;19;20015;-79
2022/11/21 08:09:10;;;;;;;66.45;13.57;;;11.20;79.10;;;;;;7391068;19;20022;-79
2022/11/21 08:11:39;;;;;;;44.35;13.85;;;11.20;79.10;;;;;;7368444;19;20025;-79
2022/11/21 08:14:10;;;;;;;49.28;16.20;;;11.20;79.30;;;;;;7369339;19;20055;-82
2022/11/21 08:16:52;;;;;;;61.05;17.42;;;11.20;79.40;;;;;;7369756;19;20018;-84
2022/11/21 08:19:26;;;;;;;78.32;19.15;;;11.20;79.40;;;;;;7363679;19;20025;-81
2022/11/21 08:25:39;;;;;;;384.58;27.10;;;11.20;79.70;;;;;;7339557;19;20021;-82
2022/11/21 08:28:18;;;;;;;1527.03;67.05;;;11.20;79.40;;;;;;7360422;19;20797;-81
2022/11/21 08:30:55;;;;;;;952.88;39.92;;;11.20;79.70;;;;;;7364084;19;20018;-83
2022/11/21 08:34:08;;;;;;;62.08;13.77;;;11.20;79.60;;;;;;7357017;19;20105;-84
2022/11/21 08:43:38;;;;;;;93.00;25.60;;;11.10;80.00;;;;;;7342466;19;20451;-82
2022/11/21 08:46:26;;;;;;;1368.63;58.58;;;11.10;80.00;;;;;;7353039;19;20014;-84
2022/11/21 08:49:09;;;;;;;54.25;16.88;;;11.20;80.30;;;;;;7363189;19;20023;-81
2022/11/21 08:51:50;;;;;;;48.83;11.68;;;11.10;80.20;;;;;;7360833;19;20027;-83
2022/11/21 08:54:27;;;;;;;43.85;11.70;;;11.20;80.10;;;;;;7365186;19;20037;-80
2022/11/21 08:57:01;;;;;;;35.70;10.07;;;11.20;80.00;;;;;;7388610;19;20078;-83
2022/11/21 08:59:48;;;;;;;28.52;10.30;;;11.20;79.90;;;;;;7362211;19;20098;-84
2022/11/21 09:02:32;;;;;;;40.03;10.85;;;11.20;79.90;;;;;;7371238;19;20010;-87
2022/11/21 09:05:19;;;;;;;35.67;11.45;;;11.20;79.80;;;;;;7362890;19;20018;-87
2022/11/21 09:08:00;;;;;;;1235.53;67.38;;;11.20;79.90;;;;;;7360802;19;20018;-84
2022/11/21 09:10:45;;;;;;;216.43;16.67;;;11.30;80.00;;;;;;7365784;19;20022;-82
2022/11/21 09:13:17;;;;;;;36.08;9.32;;;11.30;80.20;;;;;;7366277;19;20014;-83
2022/11/21 09:18:38;;;;;;;25.40;9.10;;;11.30;80.00;;;;;;7357776;19;20037;-82
2022/11/21 09:21:36;;;;;;;34.28;9.77;;;11.30;79.90;;;;;;7389560;19;20022;-82
2022/11/21 09:24:27;;;;;;;30.50;9.55;;;11.40;80.10;;;;;;7367653;19;20051;-82
2022/11/21 09:27:04;;;;;;;36.23;10.43;;;11.40;79.90;;;;;;7367597;19;20466;-85
2022/11/21 09:29:42;;;;;;;27.88;8.93;;;11.40;79.60;;;;;;7367281;19;20278;-84
2022/11/21 09:32:22;;;;;;;175.68;14.93;;;11.50;79.90;;;;;;7369444;19;20107;-84
2022/11/21 09:35:15;;;;;;;37.75;9.93;;;11.40;79.60;;;;;;7357294;19;20010;-82
2022/11/21 09:37:55;;;;;;;32.13;9.25;;;11.40;79.70;;;;;;7372557;19;20019;-83
2022/11/21 09:40:36;;;;;;;34.08;9.25;;;11.40;79.80;;;;;;7374457;19;20078;-83
2022/11/21 09:43:34;;;;;;;28.08;8.02;;;11.40;79.80;;;;;;7375182;19;20567;-82
2022/11/21 09:46:16;;;;;;;33.78;7.68;;;11.40;79.80;;;;;;7366357;19;20619;-86
2022/11/21 09:48:59;;;;;;;37.47;8.48;;;11.50;79.70;;;;;;7373241;19;20440;-85
2022/11/21 09:51:43;;;;;;;31.83;8.10;;;11.50;79.90;;;;;;7375817;19;20047;-84
2022/11/21 09:54:35;;;;;;;34.33;7.25;;;11.50;80.00;;;;;;7396492;19;20114;-86
2022/11/21 09:57:16;;;;;;;26.58;7.68;;;11.50;80.00;;;;;;7377569;19;20022;-83
2022/11/21 09:59:50;;;;;;;27.17;7.80;;;11.50;79.70;;;;;;7373702;19;20006;-82
2022/11/21 10:02:28;;;;;;;30.42;7.93;;;11.50;79.70;;;;;;7374728;19;20462;-86
2022/11/21 10:05:02;;;;;;;29.20;7.95;;;11.50;79.70;;;;;;7374497;19;20018;-83
2022/11/21 10:07:45;;;;;;;30.63;7.97;;;11.50;79.80;;;;;;7374760;19;20032;-82
2022/11/21 10:10:42;;;;;;;33.40;8.25;;;11.50;79.80;;;;;;7374359;19;20022;-83
2022/11/21 10:13:26;;;;;;;30.70;8.05;;;11.50;80.00;;;;;;7372349;19;20509;-83
2022/11/21 10:16:08;;;;;;;32.65;7.60;;;11.60;80.00;;;;;;7375582;19;20018;-84
2022/11/21 10:19:12;;;;;;;38.35;8.57;;;11.60;79.70;;;;;;7374697;19;21136;-83
2022/11/21 10:22:17;;;;;;;32.55;8.23;;;11.60;79.80;;;;;;7367890;19;20014;-81
2022/11/21 10:25:09;;;;;;;39.03;8.00;;;11.70;79.70;;;;;;7371611;19;20367;-84
2022/11/21 10:27:54;;;;;;;47.03;13.03;;;11.70;79.60;;;;;;7368031;19;20000;-84
2022/11/21 10:30:31;;;;;;;81.20;20.98;;;11.70;79.70;;;;;;7372592;19;20354;-82
2022/11/21 11:03:11;;;;;;;35.30;6.50;;;11.80;78.70;;;;;;7377892;19;20018;-86
2022/11/21 11:09:35;;;;;;;32.33;5.80;;;11.80;78.80;;;;;;7372872;19;20019;-86
2022/11/21 11:13:32;;;;;;;26.73;5.80;;;11.80;78.30;;;;;;7371915;19;20421;-85
2022/11/21 11:15:29;;;;;;;37.58;6.25;;;11.80;78.60;;;;;;7375002;19;20018;-86
2022/11/21 11:18:17;;;;;;;24.67;4.95;;;11.80;78.50;;;;;;7377381;19;20014;-88
2022/11/21 11:20:53;;;;;;;31.85;5.57;;;11.70;78.70;;;;;;7374853;19;20040;-85
2022/11/21 11:23:50;;;;;;;23.90;5.93;;;11.80;78.90;;;;;;7379875;19;20018;-88
2022/11/21 11:30:05;;;;;;;18.38;4.82;;;11.80;78.80;;;;;;7373231;19;20019;-85
2022/11/21 11:33:02;;;;;;;26.20;5.18;;;11.80;78.60;;;;;;7356913;19;20015;-84
2022/11/21 11:35:55;;;;;;;27.08;5.15;;;11.80;78.30;;;;;;7371741;19;20007;-88
2022/11/21 11:38:40;;;;;;;23.70;4.30;;;11.80;78.40;;;;;;7371269;19;20018;-85
2022/11/21 11:47:29;;;;;;;31.77;5.13;;;11.70;78.50;;;;;;7373396;19;20031;-86
2022/11/21 11:48:09;;;;;;;28.77;5.00;;;11.70;78.40;;;;;;7376153;19;20018;-85
2022/11/21 11:51:02;;;;;;;31.48;5.57;;;11.70;78.50;;;;;;7371366;19;20014;-86
2022/11/21 11:57:20;;;;;;;31.38;5.70;;;11.70;78.70;;;;;;7368942;19;20015;-85
2022/11/21 12:00:16;;;;;;;27.02;5.32;;;11.70;78.90;;;;;;7361258;19;20018;-86
2022/11/21 12:03:14;;;;;;;29.00;4.80;;;11.80;78.80;;;;;;7369515;19;20345;-84
2022/11/21 12:06:05;;;;;;;37.35;5.00;;;11.80;78.60;;;;;;7369536;19;20017;-87
2022/11/21 12:12:29;;;;;;;16.38;4.53;;;11.80;78.10;;;;;;7240133;19;2004579;-85
2022/11/21 12:18:18;;;;;;;25.02;4.78;;;11.90;78.20;;;;;;7363978;19;20044;-83
2022/11/21 12:27:25;;;;;;;42.47;11.85;;;11.80;77.80;;;;;;7363865;19;20014;-84
2022/11/21 12:30:31;;;;;;;39.10;9.93;;;11.80;78.00;;;;;;7363716;19;20018;-85
2022/11/21 12:33:28;;;;;;;30.38;7.68;;;11.80;78.40;;;;;;7340834;19;20037;-88
2022/11/21 12:36:30;;;;;;;26.13;6.50;;;11.80;78.70;;;;;;7369342;19;20432;-83
2022/11/21 12:39:42;;;;;;;21.23;4.38;;;11.80;78.90;;;;;;7371562;19;20014;-84
2022/11/21 12:45:39;;;;;;;20.45;4.85;;;11.80;79.60;;;;;;7369669;19;20052;-82
2022/11/21 12:58:30;;;;;;;38.63;4.47;;;11.80;79.40;;;;;;7368915;19;20011;-84
2022/11/21 13:01:17;;;;;;;17.48;3.70;;;11.70;79.30;;;;;;7368811;19;20338;-83
2022/11/21 13:04:02;;;;;;;26.50;4.47;;;11.70;79.70;;;;;;7368621;19;21622;-84
2022/11/21 13:06:34;;;;;;;28.50;5.55;;;11.70;79.90;;;;;;7369610;19;20018;-87
2022/11/21 13:09:07;;;;;;;31.65;5.25;;;11.70;79.80;;;;;;7370593;19;20034;-86
2022/11/21 13:12:01;;;;;;;31.48;5.25;;;11.70;80.00;;;;;;7366441;19;20014;-85
2022/11/21 13:14:47;;;;;;;19.55;4.38;;;11.70;80.00;;;;;;7369603;19;20015;-84
2022/11/21 13:17:27;;;;;;;25.00;4.40;;;11.60;80.20;;;;;;7365472;19;20098;-83
2022/11/21 13:19:59;;;;;;;20.60;4.00;;;11.60;80.00;;;;;;7367548;19;20014;-85
2022/11/21 13:22:51;;;;;;;21.65;3.90;;;11.60;80.20;;;;;;7390607;19;20109;-86
2022/11/21 13:25:42;;;;;;;54.35;5.45;;;11.60;80.30;;;;;;7367988;19;20119;-84
2022/11/21 13:28:34;;;;;;;18.52;4.32;;;11.70;80.50;;;;;;7369126;19;20022;-84
2022/11/21 13:31:04;;;;;;;24.23;4.53;;;11.60;80.80;;;;;;7368760;19;20019;-82
2022/11/21 13:33:54;;;;;;;26.17;5.05;;;11.60;80.80;;;;;;7370990;19;20011;-89
2022/11/21 13:36:40;;;;;;;21.90;4.00;;;11.60;81.20;;;;;;7382970;19;20022;-87
2022/11/21 13:39:38;;;;;;;28.08;4.18;;;11.60;81.20;;;;;;7378333;19;20022;-86
2022/11/21 13:44:57;;;;;;;19.63;3.78;;;11.70;81.30;;;;;;7372463;19;20366;-85
2022/11/21 13:47:40;;;;;;;28.40;4.45;;;11.70;81.50;;;;;;7372766;19;20026;-85
2022/11/21 13:50:25;;;;;;;16.80;3.85;;;11.70;81.50;;;;;;7377843;19;20018;-87
2022/11/21 13:53:05;;;;;;;19.08;3.80;;;11.70;81.40;;;;;;7372599;19;20033;-87
2022/11/21 13:55:50;;;;;;;19.58;4.35;;;11.70;81.20;;;;;;7396011;19;20015;-85
2022/11/21 13:58:34;;;;;;;28.00;4.90;;;11.70;81.30;;;;;;7375411;19;20045;-84
2022/11/21 14:01:38;;;;;;;21.15;4.05;;;11.70;81.30;;;;;;7386974;19;20018;-88
2022/11/21 14:04:41;;;;;;;31.75;5.50;;;11.60;81.60;;;;;;7380295;19;20110;-84
2022/11/21 14:07:30;;;;;;;15.43;3.90;;;11.60;81.90;;;;;;7370189;19;20014;-83
2022/11/21 14:10:02;;;;;;;19.15;4.15;;;11.60;81.90;;;;;;7370923;19;20446;-89
2022/11/21 14:17:47;;;;;;;29.77;4.50;;;11.60;81.80;;;;;;7379266;19;20022;-92
2022/11/21 14:23:00;;;;;;;25.73;4.82;;;11.60;82.10;;;;;;7355679;19;20010;-84
2022/11/21 14:25:38;;;;;;;102.75;40.65;;;11.50;82.50;;;;;;7413279;19;20015;-91
2022/11/21 14:28:12;;;;;;;100.72;42.00;;;11.40;82.70;;;;;;7318644;19;20047;-90
2022/11/21 14:30:43;;;;;;;28.27;10.35;;;11.40;82.80;;;;;;7384548;19;20032;-90
2022/11/21 14:33:34;;;;;;;29.63;9.18;;;11.50;83.00;;;;;;7396304;19;20038;-90
2022/11/21 14:38:38;;;;;;;17.67;5.60;;;11.50;81.90;;;;;;7393619;19;20011;-85
2022/11/21 14:43:36;;;;;;;16.35;3.35;;;11.50;83.00;;;;;;7392720;19;20026;-87
2022/11/21 14:48:36;;;;;;;28.42;4.10;;;11.50;82.50;;;;;;7342866;19;20022;-89
2022/11/21 14:51:08;;;;;;;11.85;3.88;;;11.60;82.40;;;;;;7414476;19;20031;-90
2022/11/21 14:53:45;;;;;;;;;;;11.50;83.00;;;;;;7386162;19;20015;-89
2022/11/21 14:56:24;;;;;;;14.55;4.30;;;11.60;82.20;;;;;;7379643;19;19919;-87
2022/11/21 14:58:55;;;;;;;26.33;5.00;;;11.50;81.90;;;;;;7376891;19;20015;-86
2022/11/21 15:01:26;;;;;;;9.02;3.28;;;11.50;82.10;;;;;;7398393;19;20475;-89
2022/11/21 15:04:01;;;;;;;;;;;11.50;82.10;;;;;;7381563;19;20018;-89
2022/11/21 15:06:32;;;;;;;14.38;4.07;;;11.50;82.20;;;;;;7379858;19;19918;-88
2022/11/21 15:09:05;;;;;;;14.35;4.15;;;11.50;82.10;;;;;;7376392;19;20049;-87
2022/11/21 15:11:39;;;;;;;12.57;3.58;;;11.40;82.10;;;;;;7381134;19;20334;-91